Solon, Iowa
Current Conditions -  °F | °C
As of 1:52 PM on Sunday 23 Nov 2014 (Local Time) from KCID Reporting Station
Light Rain Light Rain  
Wind Chill: 10°   Ceiling: 300
Heat Index: 10°   Visibility: 2.5mi
Dew Point: 10°   Wind: 6mph
Humidity: 100%   Direction: 160°SSE
Pressure: 29.37"   Gusts: NA
Location:  41.81°N, 91.49°W
Report Text: KCID 231952Z 16005KT 2 1/2SM -RA BR OVC003 10/10 A2937 RMK AO2 SLP946 P0007 T01000100
Loading
Personal Weather Stations






























Interactive Weather Map New forecast layout! Learn more

10-Day Weather Forecast

Advertisements
Track Severe Weather on mobile